Time;durP1;ratioP1;P1;durP2;ratioP2;P2;SDS_P1;SDS_P2;PMS_P1;PMS_P2;Temp;Humidity;BMP_temperature;BMP_pressure;BME280_temperature;BME280_humidity;BME280_pressure;Samples;Min_cycle;Max_cycle;Signal;HPM_P1;HPM_P2
2022/12/29 00:00:31;;;;;;;;;;;;;;;19.66;66.47;99401.38;2058761;28;20242;-72
2022/12/29 00:01:39;;;;;;;;;;;;;;;19.66;66.62;99409.44;2059267;28;19930;-71
2022/12/29 00:02:40;;;;;;;;;;;;;;;19.67;66.57;99405.75;2049844;28;19929;-72
2022/12/29 00:03:42;;;;;;;;;;;;;;;19.65;66.53;99405.06;2057039;28;19936;-72
2022/12/29 00:04:45;;;;;;;;;;;;;;;19.66;66.73;99403.25;2057254;28;20338;-71
2022/12/29 00:05:57;;;;;;;;;;;;;;;19.65;66.59;99397.00;2057719;28;19936;-72
2022/12/29 00:06:58;;;;;;;;;;;;;;;19.66;66.66;99403.25;2055019;28;20068;-72
2022/12/29 00:07:59;;;;;;;;;;;;;;;19.66;66.65;99409.44;2061069;28;19928;-72
2022/12/29 00:09:00;;;;;;;;;;;;;;;19.66;66.83;99404.06;2055807;28;20012;-71
2022/12/29 00:10:01;;;;;;;;;;;;;;;19.63;66.90;99401.72;2055271;28;20351;-71
2022/12/29 00:11:02;;;;;;;;;;;;;;;19.63;66.92;99399.03;2055090;28;19948;-71
2022/12/29 00:12:04;;;;;;;;;;;;;;;19.62;66.78;99402.78;2057579;28;21118;-72
2022/12/29 00:15:44;;;;;;;;;;;;;;;19.59;67.09;99403.16;2058444;28;19925;-71
2022/12/29 00:16:44;;;;;;;;;;;;;;;19.56;67.04;99399.00;2053270;28;19929;-71
2022/12/29 00:17:46;;;;;;;;;;;;;;;19.58;67.34;99396.09;2056416;28;20654;-72
2022/12/29 00:18:47;;;;;;;;;;;;;;;19.57;66.93;99400.66;2057187;28;20867;-71
2022/12/29 00:35:54;;;;;;;;;;;;;;;19.48;67.34;99374.06;2054393;28;19922;-71
2022/12/29 00:36:56;;;;;;;;;;;;;;;19.47;67.00;99373.22;2058879;28;19929;-71
2022/12/29 00:44:44;;;;;;;;;;;;;;;19.43;67.26;99370.06;2058032;28;19921;-72
2022/12/29 00:45:44;;;;;;;;;;;;;;;19.45;67.37;99363.69;2056425;28;19929;-72
2022/12/29 00:46:46;;;;;;;;;;;;;;;19.45;67.36;99363.69;2060650;28;19929;-71
2022/12/29 00:47:46;;;;;;;;;;;;;;;19.46;67.42;99368.88;2056221;28;19948;-72
2022/12/29 00:50:07;;;;;;;;;;;;;;;19.45;67.36;99363.69;2055306;28;20584;-72
2022/12/29 00:51:08;;;;;;;;;;;;;;;19.41;67.56;99369.41;2051774;28;19925;-71
2022/12/29 00:52:12;;;;;;;;;;;;;;;19.43;67.51;99367.38;2058526;28;19925;-72
2022/12/29 00:53:12;;;;;;;;;;;;;;;19.46;67.53;99370.72;2058139;28;19988;-72
2022/12/29 00:54:14;;;;;;;;;;;;;;;19.46;67.15;99368.88;2053871;28;21718;-71
2022/12/29 00:55:15;;;;;;;;;;;;;;;19.46;67.39;99365.34;2054392;28;20020;-72
2022/12/29 00:56:16;;;;;;;;;;;;;;;19.41;67.38;99369.41;2058658;28;19928;-71
2022/12/29 00:57:18;;;;;;;;;;;;;;;19.39;67.76;99365.28;2065576;28;19943;-72
2022/12/29 00:58:18;;;;;;;;;;;;;;;19.40;67.75;99370.47;2056497;28;19980;-72
2022/12/29 00:59:20;;;;;;;;;;;;;;;19.40;67.43;99373.16;2053886;28;20427;-72
2022/12/29 01:00:21;;;;;;;;;;;;;;;19.43;67.58;99372.75;2054402;28;19929;-72
2022/12/29 01:01:22;;;;;;;;;;;;;;;19.41;67.54;99372.13;2056327;28;19926;-72
2022/12/29 01:02:24;;;;;;;;;;;;;;;19.42;67.43;99379.19;2055226;28;20324;-71
2022/12/29 01:03:24;;;;;;;;;;;;;;;19.42;67.67;99381.88;2053353;28;20082;-72
2022/12/29 01:04:27;;;;;;;;;;;;;;;19.41;67.61;99373.97;2056949;28;20352;-70
2022/12/29 01:05:27;;;;;;;;;;;;;;;19.38;67.52;99380.56;2055454;28;20023;-71
2022/12/29 01:06:29;;;;;;;;;;;;;;;19.38;68.13;99379.75;2057992;28;19925;-71
2022/12/29 01:07:32;;;;;;;;;;;;;;;19.37;68.04;99384.28;2053910;28;20190;-71
2022/12/29 01:08:32;;;;;;;;;;;;;;;19.36;67.83;99377.25;2054192;28;20304;-70
2022/12/29 01:10:58;;;;;;;;;;;;;;;19.36;67.93;99381.78;2058620;28;19925;-72
2022/12/29 01:12:00;;;;;;;;;;;;;;;19.35;68.00;99389.03;2062061;28;19921;-71
2022/12/29 01:13:00;;;;;;;;;;;;;;;19.36;68.03;99379.94;2057332;28;20396;-71
2022/12/29 01:14:02;;;;;;;;;;;;;;;19.36;67.68;99389.84;2060758;28;19926;-70
2022/12/29 01:15:03;;;;;;;;;;;;;;;19.36;68.07;99390.72;2055650;28;20200;-71
2022/12/29 01:16:05;;;;;;;;;;;;;;;19.37;68.14;99384.28;2059345;28;19976;-71
2022/12/29 01:17:05;;;;;;;;;;;;;;;19.36;68.13;99387.16;2058527;28;19938;-70
2022/12/29 01:18:07;;;;;;;;;;;;;;;19.35;67.98;99389.03;2056920;28;21180;-70
2022/12/29 01:19:08;;;;;;;;;;;;;;;19.33;68.11;99390.22;2054458;28;21697;-71
2022/12/29 01:20:10;;;;;;;;;;;;;;;19.31;68.40;99384.22;2056396;28;19929;-71
2022/12/29 01:21:10;;;;;;;;;;;;;;;19.32;68.00;99394.78;2054870;28;19936;-71
2022/12/29 01:22:12;;;;;;;;;;;;;;;19.31;68.07;99395.00;2060606;28;20368;-71
2022/12/29 01:23:14;;;;;;;;;;;;;;;19.31;68.52;99390.44;2055054;28;20286;-71
2022/12/29 01:24:16;;;;;;;;;;;;;;;19.30;68.49;99391.44;2055359;28;19934;-71
2022/12/29 01:25:17;;;;;;;;;;;;;;;19.30;68.33;99394.13;2059960;28;19932;-72
2022/12/29 01:26:19;;;;;;;;;;;;;;;19.31;67.91;99398.50;2059959;28;20426;-72
2022/12/29 01:27:19;;;;;;;;;;;;;;;19.31;68.33;99395.81;2056354;28;19925;-72
2022/12/29 01:28:21;;;;;;;;;;;;;;;19.32;68.18;99393.97;2054691;28;19964;-72
2022/12/29 01:29:21;;;;;;;;;;;;;;;19.32;68.21;99397.47;2056771;28;19952;-74
2022/12/29 01:30:23;;;;;;;;;;;;;;;19.30;68.15;99396.81;2060102;28;20268;-73
2022/12/29 01:31:24;;;;;;;;;;;;;;;19.29;68.14;99392.47;2055153;28;20145;-72
2022/12/29 01:32:25;;;;;;;;;;;;;;;19.27;68.48;99396.38;2056089;28;21109;-74
2022/12/29 01:33:26;;;;;;;;;;;;;;;19.27;68.23;99404.44;2062187;28;19975;-73
2022/12/29 01:34:27;;;;;;;;;;;;;;;19.29;68.21;99405.09;2057323;28;19980;-74
2022/12/29 01:35:28;;;;;;;;;;;;;;;19.26;68.19;99400.94;2054268;28;19931;-73
2022/12/29 01:36:29;;;;;;;;;;;;;;;19.25;68.36;99399.28;2056991;28;19952;-73
2022/12/29 01:37:30;;;;;;;;;;;;;;;19.24;68.69;99391.38;2060428;28;19925;-72
2022/12/29 01:38:33;;;;;;;;;;;;;;;19.25;67.93;99387.66;2057632;28;20029;-74
2022/12/29 01:39:33;;;;;;;;;;;;;;;19.26;68.57;99392.84;2057744;28;19921;-72
2022/12/29 01:40:43;;;;;;;;;;;;;;;19.25;68.29;99385.81;2056687;28;19935;-73
2022/12/29 01:41:44;;;;;;;;;;;;;;;19.26;68.46;99387.47;2057632;28;20383;-75
2022/12/29 01:42:45;;;;;;;;;;;;;;;19.25;68.19;99385.81;2057335;28;19951;-73
2022/12/29 01:43:46;;;;;;;;;;;;;;;19.23;68.66;99385.19;2055773;28;20468;-74
2022/12/29 01:44:53;;;;;;;;;;;;;;;19.24;68.53;99384.13;2058933;28;19921;-75
2022/12/29 01:45:53;;;;;;;;;;;;;;;19.23;68.56;99382.47;2059341;28;19928;-73
2022/12/29 01:46:55;;;;;;;;;;;;;;;19.24;68.44;99386.81;2056905;28;19932;-73
2022/12/29 01:47:57;;;;;;;;;;;;;;;19.23;68.47;99387.88;2061161;28;20004;-72
2022/12/29 01:49:03;;;;;;;;;;;;;;;19.19;68.95;99389.25;2056676;28;20296;-72
2022/12/29 01:50:06;;;;;;;;;;;;;;;19.20;68.52;99382.88;2056107;28;19929;-74
2022/12/29 01:51:08;;;;;;;;;;;;;;;19.20;68.91;99388.25;2061503;28;20601;-74
2022/12/29 01:52:08;;;;;;;;;;;;;;;19.19;68.30;99383.88;2059455;28;20036;-72
2022/12/29 01:53:12;;;;;;;;;;;;;;;19.21;68.42;99395.28;2059050;28;20104;-73
2022/12/29 01:54:17;;;;;;;;;;;;;;;19.19;68.27;99387.41;2059338;28;19933;-73
2022/12/29 01:55:18;;;;;;;;;;;;;;;19.19;68.59;99391.94;2054291;28;19929;-73
2022/12/29 01:56:20;;;;;;;;;;;;;;;19.18;68.11;99388.41;2057086;28;19946;-73
2022/12/29 01:57:25;;;;;;;;;;;;;;;19.18;68.37;99390.28;2057127;28;20392;-74
2022/12/29 01:58:28;;;;;;;;;;;;;;;19.18;68.69;99388.41;2057039;28;20469;-73
2022/12/29 01:59:32;;;;;;;;;;;;;;;19.18;68.21;99385.72;2060312;28;19929;-74
2022/12/29 02:00:32;;;;;;;;;;;;;;;19.16;68.63;99392.31;2062446;28;19932;-72
2022/12/29 02:01:34;;;;;;;;;;;;;;;19.19;68.40;99391.94;2060111;28;20547;-73
2022/12/29 02:02:34;;;;;;;;;;;;;;;19.19;68.23;99384.72;2060789;28;20259;-74
2022/12/29 02:03:37;;;;;;;;;;;;;;;19.21;68.23;99389.91;2060257;28;19929;-72
2022/12/29 02:04:40;;;;;;;;;;;;;;;19.19;68.70;99384.72;2058633;28;19932;-72
2022/12/29 02:05:46;;;;;;;;;;;;;;;19.16;68.44;99381.56;2058015;28;21169;-74
2022/12/29 02:06:49;;;;;;;;;;;;;;;19.17;68.60;99378.69;2058496;28;20344;-74
2022/12/29 02:07:51;;;;;;;;;;;;;;;19.13;68.27;99371.19;2062939;28;19921;-74
2022/12/29 02:08:54;;;;;;;;;;;;;;;19.14;68.59;99367.50;2058063;28;20283;-73
2022/12/29 02:09:58;;;;;;;;;;;;;;;19.12;68.61;99364.97;2057976;28;20485;-74
2022/12/29 02:10:59;;;;;;;;;;;;;;;19.09;69.01;99370.75;2053916;28;19929;-73
2022/12/29 02:12:02;;;;;;;;;;;;;;;19.08;68.50;99355.59;2055792;28;20019;-73
2022/12/29 02:13:02;;;;;;;;;;;;;;;19.10;68.51;99360.81;2059267;28;19922;-73
2022/12/29 02:14:08;;;;;;;;;;;;;;;19.10;68.56;99358.94;2054925;28;19925;-72
2022/12/29 02:15:09;;;;;;;;;;;;;;;19.11;68.42;99367.84;2057808;28;19980;-72
2022/12/29 02:16:26;;;;;;;;;;;;;;;19.09;68.52;99359.97;2056241;28;20883;-73
2022/12/29 02:17:34;;;;;;;;;;;;;;;19.09;68.86;99362.66;2059852;28;19932;-72
2022/12/29 02:18:40;;;;;;;;;;;;;;;19.10;68.77;99360.81;2060034;28;19926;-73
2022/12/29 02:20:06;;;;;;;;;;;;;;;19.08;68.48;99354.78;2056788;28;20854;-72
2022/12/29 02:21:24;;;;;;;;;;;;;;;19.06;68.44;99354.16;2060334;28;19928;-72
2022/12/29 02:22:27;;;;;;;;;;;;;;;19.07;68.72;99355.81;2060761;28;20681;-72
2022/12/29 02:23:42;;;;;;;;;;;;;;;19.05;68.86;99353.31;2057169;28;20567;-73
2022/12/29 02:25:01;;;;;;;;;;;;;;;19.07;68.86;99355.81;2053959;28;19929;-74
2022/12/29 02:26:16;;;;;;;;;;;;;;;19.05;68.31;99349.78;2056005;28;20390;-72
2022/12/29 02:27:26;;;;;;;;;;;;;;;19.07;68.50;99353.13;2060482;28;19929;-73
2022/12/29 02:28:40;;;;;;;;;;;;;;;19.06;68.64;99354.16;2054648;28;19929;-73
2022/12/29 02:29:52;;;;;;;;;;;;;;;19.03;68.75;99349.13;2063621;28;19925;-74
2022/12/29 02:31:01;;;;;;;;;;;;;;;19.02;68.34;99352.84;2058099;28;20214;-72
2022/12/29 02:32:05;;;;;;;;;;;;;;;19.02;68.94;99353.69;2057653;28;19933;-72
2022/12/29 02:33:12;;;;;;;;;;;;;;;19.03;68.75;99355.38;2060295;28;20012;-71
2022/12/29 02:34:18;;;;;;;;;;;;;;;19.02;68.46;99353.69;2061584;28;20299;-72
2022/12/29 02:35:25;;;;;;;;;;;;;;;19.00;69.06;99350.38;2058271;28;19944;-71
2022/12/29 02:36:33;;;;;;;;;;;;;;;18.98;68.69;99345.16;2057853;28;19952;-71
2022/12/29 02:37:39;;;;;;;;;;;;;;;18.99;68.81;99343.31;2061177;28;20490;-71
2022/12/29 02:38:49;;;;;;;;;;;;;;;19.00;68.48;99338.75;2061231;28;19963;-72
2022/12/29 02:39:54;;;;;;;;;;;;;;;19.02;68.53;99339.41;2059840;28;20380;-73
2022/12/29 02:40:57;;;;;;;;;;;;;;;19.00;68.76;99344.13;2060955;28;20428;-74
2022/12/29 02:42:04;;;;;;;;;;;;;;;18.99;68.76;99337.94;2062279;28;21127;-73
2022/12/29 02:43:13;;;;;;;;;;;;;;;19.00;68.63;99345.00;2061643;28;19956;-73
2022/12/29 02:44:17;;;;;;;;;;;;;;;18.98;68.64;99339.78;2061697;28;19925;-73
2022/12/29 02:45:22;;;;;;;;;;;;;;;19.00;68.44;99341.44;2062343;28;19971;-73
2022/12/29 02:46:29;;;;;;;;;;;;;;;19.00;68.88;99344.13;2064589;28;19928;-73
2022/12/29 02:47:35;;;;;;;;;;;;;;;18.98;68.66;99338.97;2061610;28;19929;-72
2022/12/29 02:48:39;;;;;;;;;;;;;;;18.97;68.60;99340.81;2062361;28;19934;-73
2022/12/29 02:49:44;;;;;;;;;;;;;;;18.97;68.75;99334.59;2064481;28;19925;-74
2022/12/29 02:50:50;;;;;;;;;;;;;;;18.97;68.88;99334.59;2060521;28;19921;-72
2022/12/29 02:51:56;;;;;;;;;;;;;;;18.96;68.36;99335.63;2065375;28;20441;-72
2022/12/29 02:52:59;;;;;;;;;;;;;;;18.99;68.88;99337.94;2063634;28;19935;-72
2022/12/29 02:55:19;;;;;;;;;;;;;;;18.96;68.76;99327.56;2062460;28;19925;-72
2022/12/29 02:56:20;;;;;;;;;;;;;;;18.96;68.81;99330.25;2063862;28;20005;-73
2022/12/29 02:57:33;;;;;;;;;;;;;;;18.96;68.61;99333.75;2061975;28;20455;-72
2022/12/29 02:58:34;;;;;;;;;;;;;;;18.96;69.23;99331.06;2062255;28;20565;-72
2022/12/29 02:59:35;;;;;;;;;;;;;;;18.96;68.59;99333.75;2064443;28;19975;-72
2022/12/29 03:00:38;;;;;;;;;;;;;;;18.96;69.04;99327.56;2062019;28;19925;-72
2022/12/29 03:02:16;;;;;;;;;;;;;;;18.96;68.79;99328.38;2061496;28;20032;-75
2022/12/29 03:03:15;;;;;;;;;;;;;;;18.94;69.03;99325.06;2063372;28;19932;-73
2022/12/29 03:04:22;;;;;;;;;;;;;;;18.94;68.82;99327.78;2057539;28;20032;-73
2022/12/29 03:05:30;;;;;;;;;;;;;;;18.95;69.16;99326.72;2062564;28;20441;-72
2022/12/29 03:06:36;;;;;;;;;;;;;;;18.93;68.55;99318.00;2060870;28;19937;-76
2022/12/29 03:07:41;;;;;;;;;;;;;;;18.92;69.16;99316.38;2063173;28;19983;-76
2022/12/29 03:08:49;;;;;;;;;;;;;;;18.91;68.52;99320.06;2058090;28;19925;-74
2022/12/29 03:09:55;;;;;;;;;;;;;;;18.91;69.18;99317.38;2063034;28;19936;-75
2022/12/29 03:11:01;;;;;;;;;;;;;;;18.90;69.19;99312.19;2064874;28;19922;-75
2022/12/29 03:12:07;;;;;;;;;;;;;;;18.88;69.09;99316.91;2059232;28;19925;-72
2022/12/29 03:16:05;;;;;;;;;;;;;;;18.88;69.24;99303.47;2063418;28;19921;-71
2022/12/29 03:17:10;;;;;;;;;;;;;;;18.88;68.97;99315.06;2061760;28;20110;-70
2022/12/29 03:18:14;;;;;;;;;;;;;;;18.88;69.15;99309.69;2061226;28;20133;-70
2022/12/29 03:19:18;;;;;;;;;;;;;;;18.88;69.14;99306.16;2064468;28;19932;-71
2022/12/29 03:20:21;;;;;;;;;;;;;;;18.86;69.10;99303.69;2057768;28;19940;-72
2022/12/29 03:22:26;;;;;;;;;;;;;;;18.87;69.09;99301.81;2058533;28;20373;-72
2022/12/29 03:22:49;;;;;;;;;;;;;;;18.86;68.98;99301.00;2057296;28;20567;-72
2022/12/29 03:23:50;;;;;;;;;;;;;;;18.86;68.79;99301.00;2059663;28;19925;-72
2022/12/29 03:24:53;;;;;;;;;;;;;;;18.85;68.99;99301.16;2060589;28;20360;-70
2022/12/29 03:27:34;;;;;;;;;;;;;;;18.84;69.13;99302.19;2061032;28;19930;-73
2022/12/29 03:28:36;;;;;;;;;;;;;;;18.85;68.98;99296.63;2059838;28;19979;-73
2022/12/29 03:29:43;;;;;;;;;;;;;;;18.84;68.77;99302.19;2058133;28;20436;-71
2022/12/29 03:30:44;;;;;;;;;;;;;;;18.82;69.22;99304.25;2060704;28;19925;-73
2022/12/29 03:31:49;;;;;;;;;;;;;;;18.82;68.83;99305.06;2057102;28;19929;-73
2022/12/29 03:32:52;;;;;;;;;;;;;;;18.81;69.16;99311.47;2058312;28;20514;-72
2022/12/29 03:33:54;;;;;;;;;;;;;;;18.82;69.06;99309.63;2057188;28;19983;-71
2022/12/29 03:34:55;;;;;;;;;;;;;;;18.80;68.81;99307.09;2056737;28;19925;-73
2022/12/29 03:35:59;;;;;;;;;;;;;;;18.81;68.80;99313.34;2061250;28;19929;-71
2022/12/29 03:37:02;;;;;;;;;;;;;;;18.77;68.77;99312.84;2057728;28;19925;-70
2022/12/29 03:38:12;;;;;;;;;;;;;;;18.77;69.16;99307.47;2061300;28;19921;-72
2022/12/29 03:39:13;;;;;;;;;;;;;;;18.78;68.62;99308.31;2064135;28;19941;-71
2022/12/29 03:40:15;;;;;;;;;;;;;;;18.78;68.92;99311.84;2060138;28;19961;-71
2022/12/29 03:41:17;;;;;;;;;;;;;;;18.76;69.04;99311.19;2058918;28;19930;-72
2022/12/29 03:42:20;;;;;;;;;;;;;;;18.78;69.16;99313.69;2061016;28;20327;-71
2022/12/29 03:43:21;;;;;;;;;;;;;;;18.78;69.01;99319.06;2057585;28;20383;-72
2022/12/29 03:44:31;;;;;;;;;;;;;;;18.78;68.86;99317.22;2060927;28;19929;-71
2022/12/29 03:45:32;;;;;;;;;;;;;;;18.78;69.04;99317.22;2058816;28;20007;-73
2022/12/29 03:46:33;;;;;;;;;;;;;;;18.77;69.02;99315.53;2063464;28;20383;-72
2022/12/29 03:47:34;;;;;;;;;;;;;;;18.80;68.65;99311.66;2063350;28;19925;-73
2022/12/29 03:48:37;;;;;;;;;;;;;;;18.77;68.81;99312.03;2057497;28;19980;-71
2022/12/29 03:49:37;;;;;;;;;;;;;;;18.75;68.89;99314.91;2053176;28;19926;-70
2022/12/29 03:50:39;;;;;;;;;;;;;;;18.74;69.22;99313.22;2054809;28;19929;-71
2022/12/29 03:51:39;;;;;;;;;;;;;;;18.74;69.38;99310.53;2059185;28;19925;-73
2022/12/29 03:52:41;;;;;;;;;;;;;;;18.73;69.30;99308.84;2054265;28;19935;-72
2022/12/29 03:53:41;;;;;;;;;;;;;;;18.73;69.33;99306.19;2053452;28;19929;-73
2022/12/29 03:54:46;;;;;;;;;;;;;;;18.73;69.38;99316.91;2052291;28;19965;-70
2022/12/29 03:55:50;;;;;;;;;;;;;;;18.73;69.44;99307.00;2061225;28;20016;-70
2022/12/29 03:56:52;;;;;;;;;;;;;;;18.73;69.38;99307.00;2065826;28;19922;-72
2022/12/29 03:57:52;;;;;;;;;;;;;;;18.74;69.33;99308.69;2059919;28;19988;-72
2022/12/29 03:58:54;;;;;;;;;;;;;;;18.73;69.82;99309.69;2061256;28;19932;-72
2022/12/29 03:59:54;;;;;;;;;;;;;;;18.74;69.44;99307.84;2056528;28;19925;-71
2022/12/29 04:00:56;;;;;;;;;;;;;;;18.73;69.68;99304.31;2056722;28;20284;-71
2022/12/29 04:01:56;;;;;;;;;;;;;;;18.73;69.12;99306.19;2058639;28;20427;-71
2022/12/29 04:02:58;;;;;;;;;;;;;;;18.70;69.58;99307.38;2060477;28;19925;-72
2022/12/29 04:04:00;;;;;;;;;;;;;;;18.73;69.75;99306.19;2062575;28;19929;-71
2022/12/29 04:05:01;;;;;;;;;;;;;;;18.75;69.23;99306.84;2053343;28;19925;-73
2022/12/29 04:06:02;;;;;;;;;;;;;;;18.73;69.51;99307.00;2058655;28;21024;-72
2022/12/29 04:07:10;;;;;;;;;;;;;;;18.72;69.55;99315.25;2054122;28;19926;-71
2022/12/29 04:08:10;;;;;;;;;;;;;;;18.72;69.61;99315.25;2056663;28;19969;-72
2022/12/29 04:09:12;;;;;;;;;;;;;;;18.69;69.79;99315.63;2059580;28;19992;-72
2022/12/29 04:10:12;;;;;;;;;;;;;;;18.69;69.69;99313.78;2060128;28;20075;-73
2022/12/29 04:11:14;;;;;;;;;;;;;;;18.70;69.74;99311.94;2057742;28;19980;-71
2022/12/29 04:12:14;;;;;;;;;;;;;;;18.72;69.58;99305.34;2059021;28;19932;-73
2022/12/29 04:13:16;;;;;;;;;;;;;;;18.71;69.75;99314.41;2054685;28;20391;-71
2022/12/29 04:14:16;;;;;;;;;;;;;;;18.72;69.59;99309.88;2056281;28;19922;-73
2022/12/29 04:15:18;;;;;;;;;;;;;;;18.70;69.58;99312.75;2055324;28;19929;-71
2022/12/29 04:16:18;;;;;;;;;;;;;;;18.71;69.30;99305.53;2047804;28;20319;-72
2022/12/29 04:17:20;;;;;;;;;;;;;;;18.69;69.81;99311.09;2056807;28;19922;-72
2022/12/29 04:18:20;;;;;;;;;;;;;;;18.68;69.55;99309.41;2059259;28;20025;-72
2022/12/29 04:19:23;;;;;;;;;;;;;;;18.69;69.37;99308.41;2055834;28;20288;-72
2022/12/29 04:21:52;;;;;;;;;;;;;;;18.70;69.33;99307.38;2054411;28;19925;-72
2022/12/29 04:22:57;;;;;;;;;;;;;;;18.70;69.58;99310.06;2057056;28;19947;-71
2022/12/29 04:23:59;;;;;;;;;;;;;;;18.67;69.64;99306.94;2056490;28;19929;-72
2022/12/29 04:24:59;;;;;;;;;;;;;;;18.67;69.86;99313.13;2060225;28;20399;-71
2022/12/29 04:26:01;;;;;;;;;;;;;;;18.67;69.69;99309.63;2061476;28;19936;-71
2022/12/29 04:27:07;;;;;;;;;;;;;;;18.67;69.52;99321.19;2066223;28;19921;-72
2022/12/29 04:28:19;;;;;;;;;;;;;;;18.66;69.53;99319.50;2055586;28;19930;-71
2022/12/29 04:29:20;;;;;;;;;;;;;;;18.67;69.83;99315.00;2058655;28;19922;-73
2022/12/29 04:30:52;;;;;;;;;;;;;;;18.66;69.70;99319.50;2063478;28;20480;-72
2022/12/29 04:31:54;;;;;;;;;;;;;;;18.66;69.57;99318.69;2057045;28;19925;-72
2022/12/29 04:32:54;;;;;;;;;;;;;;;18.65;69.50;99319.72;2058787;28;19975;-70
2022/12/29 04:33:56;;;;;;;;;;;;;;;18.65;69.68;99319.72;2059560;28;20307;-69
2022/12/29 04:34:58;;;;;;;;;;;;;;;18.66;69.69;99319.50;2058612;28;20331;-69
2022/12/29 04:36:00;;;;;;;;;;;;;;;18.69;69.67;99321.00;2056684;28;20355;-70
2022/12/29 04:37:00;;;;;;;;;;;;;;;18.74;69.67;99322.13;2058580;28;20423;-72
2022/12/29 04:38:02;;;;;;;;;;;;;;;18.75;69.59;99315.75;2057370;28;19960;-71
2022/12/29 04:39:05;;;;;;;;;;;;;;;18.77;69.53;99318.22;2058975;28;19940;-69
2022/12/29 04:40:07;;;;;;;;;;;;;;;18.84;69.41;99313.78;2058931;28;20494;-69
2022/12/29 04:41:07;;;;;;;;;;;;;;;18.85;69.36;99314.59;2057662;28;19925;-71
2022/12/29 04:42:09;;;;;;;;;;;;;;;18.89;69.50;99315.91;2061100;28;21865;-71
2022/12/29 04:43:10;;;;;;;;;;;;;;;18.96;69.36;99317.63;2059146;28;20205;-70
2022/12/29 04:44:11;;;;;;;;;;;;;;;19.01;69.36;99316.25;2057247;28;20482;-72
2022/12/29 04:45:12;;;;;;;;;;;;;;;19.06;69.34;99311.97;2059467;28;19938;-71
2022/12/29 04:46:13;;;;;;;;;;;;;;;19.09;69.24;99316.13;2056056;28;19925;-71
2022/12/29 04:47:14;;;;;;;;;;;;;;;19.14;69.27;99309.16;2058784;28;19929;-71
2022/12/29 04:48:15;;;;;;;;;;;;;;;19.18;69.29;99317.66;2058305;28;20384;-71
2022/12/29 04:49:16;;;;;;;;;;;;;;;19.21;68.95;99314.59;2058278;28;19922;-72
2022/12/29 04:50:21;;;;;;;;;;;;;;;19.26;69.18;99320.25;2059800;28;20020;-70
2022/12/29 04:51:22;;;;;;;;;;;;;;;19.29;68.89;99321.72;2060070;28;19921;-71
2022/12/29 04:52:23;;;;;;;;;;;;;;;19.34;69.08;99319.28;2061366;28;20290;-72
2022/12/29 04:53:24;;;;;;;;;;;;;;;19.35;68.81;99319.09;2058929;28;19929;-70
2022/12/29 04:54:26;;;;;;;;;;;;;;;19.39;68.73;99315.00;2060837;28;20434;-71
2022/12/29 04:55:26;;;;;;;;;;;;;;;19.39;69.12;99323.06;2061918;28;19955;-71
2022/12/29 04:56:28;;;;;;;;;;;;;;;19.41;68.96;99326.38;2059688;28;19922;-71
2022/12/29 04:57:28;;;;;;;;;;;;;;;19.39;69.13;99328.44;2059269;28;20407;-70
2022/12/29 04:58:30;;;;;;;;;;;;;;;19.41;68.85;99326.38;2058544;28;19930;-71
2022/12/29 04:59:30;;;;;;;;;;;;;;;19.43;69.12;99326.19;2057724;28;19926;-70
2022/12/29 05:00:32;;;;;;;;;;;;;;;19.46;69.33;99327.69;2059658;28;20400;-73
2022/12/29 05:01:32;;;;;;;;;;;;;;;19.47;68.82;99329.34;2055793;28;19955;-70
2022/12/29 05:02:34;;;;;;;;;;;;;;;19.50;68.82;99326.25;2058229;28;20024;-73
2022/12/29 05:03:35;;;;;;;;;;;;;;;19.52;68.58;99329.59;2056833;28;21001;-71
2022/12/29 05:04:36;;;;;;;;;;;;;;;19.51;68.89;99326.06;2056093;28;20946;-72
2022/12/29 05:05:38;;;;;;;;;;;;;;;19.55;68.89;99329.22;2058187;28;19929;-72
2022/12/29 05:06:40;;;;;;;;;;;;;;;19.56;68.98;99322.81;2063074;28;19929;-72
2022/12/29 05:07:40;;;;;;;;;;;;;;;19.57;68.94;99319.09;2056860;28;19928;-71
2022/12/29 05:08:42;;;;;;;;;;;;;;;19.56;69.22;99326.34;2060750;28;20406;-71
2022/12/29 05:09:42;;;;;;;;;;;;;;;19.56;69.12;99325.50;2059990;28;20569;-73
2022/12/29 05:10:45;;;;;;;;;;;;;;;19.56;68.67;99323.66;2057658;28;19929;-72
2022/12/29 05:11:46;;;;;;;;;;;;;;;19.60;68.80;99329.47;2060102;28;19929;-72
2022/12/29 05:12:47;;;;;;;;;;;;;;;19.62;68.81;99333.63;2053571;28;20019;-72
2022/12/29 05:13:48;;;;;;;;;;;;;;;19.64;68.91;99331.59;2062856;28;19928;-70
2022/12/29 05:14:52;;;;;;;;;;;;;;;19.66;68.80;99331.41;2058703;28;20018;-71
2022/12/29 05:15:53;;;;;;;;;;;;;;;19.68;69.08;99332.06;2062554;28;20501;-71
2022/12/29 05:16:55;;;;;;;;;;;;;;;19.68;68.68;99334.75;2062012;28;19925;-72
2022/12/29 05:17:55;;;;;;;;;;;;;;;19.72;68.37;99333.31;2059616;28;19921;-72
2022/12/29 05:18:57;;;;;;;;;;;;;;;19.73;68.88;99329.63;2058058;28;20028;-72
2022/12/29 05:19:57;;;;;;;;;;;;;;;19.74;68.76;99328.59;2058388;28;19921;-71
2022/12/29 05:21:00;;;;;;;;;;;;;;;19.77;68.73;99335.44;2060644;28;19925;-72
2022/12/29 05:22:01;;;;;;;;;;;;;;;19.78;68.63;99331.72;2057248;28;19929;-74
2022/12/29 05:23:02;;;;;;;;;;;;;;;19.79;68.70;99342.28;2061076;28;19929;-71
2022/12/29 05:24:03;;;;;;;;;;;;;;;19.81;68.61;99339.41;2061115;28;19929;-72
2022/12/29 05:25:05;;;;;;;;;;;;;;;19.80;68.31;99341.25;2058573;28;19925;-72
2022/12/29 05:26:05;;;;;;;;;;;;;;;19.81;68.55;99342.94;2058360;28;19929;-71
2022/12/29 05:27:07;;;;;;;;;;;;;;;19.82;68.52;99344.59;2059211;28;20380;-72
2022/12/29 05:28:07;;;;;;;;;;;;;;;19.84;68.38;99339.03;2063282;28;20819;-72
2022/12/29 05:29:09;;;;;;;;;;;;;;;19.86;68.34;99347.72;2062027;28;19925;-73
2022/12/29 05:30:10;;;;;;;;;;;;;;;19.85;68.52;99340.69;2062005;28;19933;-73
2022/12/29 05:31:11;;;;;;;;;;;;;;;19.88;68.13;99348.38;2061495;28;20584;-72
2022/12/29 05:32:12;;;;;;;;;;;;;;;19.90;68.37;99350.88;2058160;28;19936;-72
2022/12/29 05:33:13;;;;;;;;;;;;;;;19.90;68.26;99343.63;2061766;28;19925;-71
2022/12/29 05:34:14;;;;;;;;;;;;;;;19.91;68.36;99342.59;2063257;28;20617;-73
2022/12/29 05:35:16;;;;;;;;;;;;;;;19.90;68.33;99346.31;2059231;28;20047;-71
2022/12/29 05:36:17;;;;;;;;;;;;;;;19.92;68.10;99352.34;2060694;28;20323;-72
2022/12/29 05:37:20;;;;;;;;;;;;;;;19.93;68.25;99350.50;2061814;28;20161;-71
2022/12/29 05:38:20;;;;;;;;;;;;;;;19.92;68.35;99344.28;2058214;28;19925;-71
2022/12/29 05:39:22;;;;;;;;;;;;;;;19.92;68.28;99354.19;2057306;28;19972;-72
2022/12/29 05:40:23;;;;;;;;;;;;;;;19.95;67.81;99356.53;2060387;28;20051;-72
2022/12/29 05:41:24;;;;;;;;;;;;;;;19.95;68.29;99353.81;2059222;28;20268;-72
2022/12/29 05:42:25;;;;;;;;;;;;;;;19.95;68.05;99353.81;2056596;28;19944;-71
2022/12/29 05:43:26;;;;;;;;;;;;;;;19.95;68.19;99351.97;2061177;28;20299;-72
2022/12/29 05:44:27;;;;;;;;;;;;;;;19.95;67.81;99353.81;2061023;28;19925;-72
2022/12/29 05:45:28;;;;;;;;;;;;;;;19.97;67.72;99347.19;2060535;28;19926;-70
2022/12/29 05:46:29;;;;;;;;;;;;;;;19.95;67.94;99353.81;2057543;28;19932;-71
2022/12/29 05:47:30;;;;;;;;;;;;;;;19.95;67.83;99353.81;2057213;28;19925;-70
2022/12/29 05:48:31;;;;;;;;;;;;;;;19.97;67.77;99352.56;2059421;28;19925;-72
2022/12/29 05:49:32;;;;;;;;;;;;;;;19.98;67.99;99356.13;2057330;28;19967;-71
2022/12/29 05:50:33;;;;;;;;;;;;;;;19.97;67.55;99357.97;2059484;28;20091;-72
2022/12/29 05:51:36;;;;;;;;;;;;;;;19.99;67.96;99353.22;2058384;28;20185;-70
2022/12/29 05:52:36;;;;;;;;;;;;;;;19.98;67.70;99350.75;2061472;28;19925;-70
2022/12/29 05:53:38;;;;;;;;;;;;;;;19.99;67.81;99355.09;2060502;28;20098;-71
2022/12/29 05:54:38;;;;;;;;;;;;;;;19.99;67.69;99355.09;2062341;28;19929;-73
2022/12/29 05:55:40;;;;;;;;;;;;;;;19.98;67.85;99354.25;2059796;28;19971;-70
2022/12/29 05:56:40;;;;;;;;;;;;;;;19.99;67.89;99363.16;2062099;28;19925;-72
2022/12/29 05:57:42;;;;;;;;;;;;;;;19.98;67.90;99359.66;2061752;28;19921;-70
2022/12/29 05:58:43;;;;;;;;;;;;;;;19.98;67.56;99359.66;2062181;28;19925;-70
2022/12/29 05:59:44;;;;;;;;;;;;;;;19.99;67.59;99355.09;2058643;28;19934;-72
2022/12/29 06:00:44;;;;;;;;;;;;;;;19.99;67.65;99360.47;2063493;28;20356;-71
2022/12/29 06:01:46;;;;;;;;;;;;;;;19.99;67.81;99355.09;2065759;28;19948;-76
2022/12/29 06:02:47;;;;;;;;;;;;;;;20.00;67.62;99362.13;2059351;28;19932;-72
2022/12/29 06:03:48;;;;;;;;;;;;;;;20.00;67.84;99354.91;2060167;28;19926;-70